createdAt,value
2023-01-10T00:00:43.133Z,79.53
2023-01-10T00:03:12.038Z,79.29
2023-01-10T00:05:40.659Z,79.33
2023-01-10T00:08:08.894Z,78.72
2023-01-10T00:10:36.213Z,79.07
2023-01-10T00:13:21.749Z,80.07
2023-01-10T00:15:49.165Z,80.05
2023-01-10T00:18:16.142Z,79.99
2023-01-10T00:20:44.820Z,79.90
2023-01-10T00:23:12.924Z,79.20
2023-01-10T00:25:40.941Z,79.28
2023-01-10T00:28:20.267Z,80.31
2023-01-10T00:31:01.242Z,80.92
2023-01-10T00:33:32.143Z,80.47
2023-01-10T00:36:03.627Z,80.85
2023-01-10T00:38:31.582Z,79.92
2023-01-10T00:40:58.640Z,80.32
2023-01-10T00:43:44.576Z,80.51
2023-01-10T00:46:11.972Z,81.40
2023-01-10T00:48:38.992Z,81.15
2023-01-10T00:51:06.178Z,81.20
2023-01-10T00:53:33.237Z,81.56
2023-01-10T00:56:00.216Z,81.85
2023-01-10T00:58:27.139Z,81.68
2023-01-10T01:00:54.081Z,82.97
2023-01-10T01:03:23.287Z,83.07
2023-01-10T01:05:50.597Z,83.48
2023-01-10T01:08:18.968Z,83.43
2023-01-10T01:10:46.803Z,83.31
2023-01-10T01:13:18.652Z,83.53
2023-01-10T01:15:45.918Z,84.05
2023-01-10T01:18:14.990Z,84.55
2023-01-10T01:20:42.316Z,84.79
2023-01-10T01:23:09.593Z,84.99
2023-01-10T01:25:36.518Z,84.03
2023-01-10T01:28:04.119Z,84.43
2023-01-10T01:30:31.015Z,84.47
2023-01-10T01:32:58.129Z,86.07
2023-01-10T01:35:25.525Z,85.88
2023-01-10T01:37:52.826Z,86.14
2023-01-10T01:40:21.720Z,86.10
2023-01-10T01:42:49.754Z,85.26
2023-01-10T01:45:34.548Z,86.29
2023-01-10T01:48:26.403Z,87.90
2023-01-10T01:51:05.747Z,88.08
2023-01-10T01:53:45.104Z,88.36
2023-01-10T01:56:15.350Z,87.93
2023-01-10T01:59:07.771Z,86.37
2023-01-10T02:01:37.722Z,86.67
2023-01-10T02:04:17.076Z,87.77
2023-01-10T02:06:46.520Z,87.98
2023-01-10T02:09:19.070Z,88.55
2023-01-10T02:11:46.325Z,88.49
2023-01-10T02:14:14.855Z,88.52
2023-01-10T02:16:42.488Z,87.70
2023-01-10T02:19:24.799Z,88.18
2023-01-10T02:22:00.283Z,89.45
2023-01-10T02:24:39.228Z,89.49
2023-01-10T02:27:41.510Z,89.41
2023-01-10T02:30:29.788Z,89.15
2023-01-10T02:33:05.793Z,88.46
2023-01-10T02:35:38.375Z,88.53
2023-01-10T02:38:31.502Z,88.91
2023-01-10T02:41:38.562Z,89.47
2023-01-10T02:44:31.859Z,89.20
2023-01-10T02:46:58.711Z,88.99
2023-01-10T02:49:25.571Z,88.12
2023-01-10T02:51:52.763Z,88.16
2023-01-10T02:54:24.824Z,89.06
2023-01-10T02:56:54.404Z,89.12
2023-01-10T02:59:38.913Z,89.41
2023-01-10T03:02:17.871Z,89.19
2023-01-10T03:05:06.203Z,88.85
2023-01-10T03:07:39.468Z,88.52
2023-01-10T03:10:25.845Z,89.27
2023-01-10T03:13:10.277Z,89.04
2023-01-10T03:15:40.240Z,89.31
2023-01-10T03:18:14.468Z,89.66
2023-01-10T03:20:45.595Z,89.39
2023-01-10T03:23:14.994Z,88.60
2023-01-10T03:25:43.999Z,89.22
2023-01-10T03:28:16.191Z,89.45
2023-01-10T03:30:55.170Z,89.97
2023-01-10T03:33:27.847Z,89.34
2023-01-10T03:36:27.476Z,88.94
2023-01-10T03:38:56.962Z,88.50
2023-01-10T03:41:29.717Z,88.73
2023-01-10T03:44:42.477Z,88.74
2023-01-10T03:47:35.613Z,89.75
2023-01-10T03:50:13.635Z,90.00
2023-01-10T03:52:42.587Z,89.99
2023-01-10T03:55:18.256Z,89.93
2023-01-10T03:57:50.131Z,88.88
2023-01-10T04:00:18.061Z,88.71
2023-01-10T04:02:45.344Z,88.82
2023-01-10T04:05:12.450Z,88.91
2023-01-10T04:07:39.753Z,88.91
2023-01-10T04:10:07.746Z,88.53
2023-01-10T04:12:34.741Z,87.59
2023-01-10T04:15:03.231Z,86.93
2023-01-10T04:17:30.188Z,87.70
2023-01-10T04:19:57.273Z,88.95
2023-01-10T04:22:24.200Z,88.93
2023-01-10T04:24:54.609Z,88.59
2023-01-10T04:27:21.626Z,88.23
2023-01-10T04:29:48.610Z,86.92
2023-01-10T04:32:16.011Z,87.10
2023-01-10T04:34:42.926Z,87.30
2023-01-10T04:37:09.920Z,87.61
2023-01-10T04:39:36.813Z,87.98
2023-01-10T04:42:03.800Z,87.62
2023-01-10T04:44:30.818Z,87.72
2023-01-10T04:46:57.819Z,86.43
2023-01-10T04:49:24.777Z,86.42
2023-01-10T04:51:51.862Z,86.47
2023-01-10T04:54:23.069Z,87.02
2023-01-10T04:56:50.221Z,87.58
2023-01-10T04:59:17.229Z,86.68
2023-01-10T05:01:44.202Z,86.91
2023-01-10T05:04:11.144Z,86.35
2023-01-10T05:06:40.355Z,86.36
2023-01-10T05:09:08.379Z,87.03
2023-01-10T05:11:35.403Z,87.28
2023-01-10T05:14:02.404Z,87.63
2023-01-10T05:16:29.769Z,88.03
2023-01-10T05:18:56.850Z,87.71
2023-01-10T05:21:24.330Z,85.86
2023-01-10T05:23:51.227Z,85.91
2023-01-10T05:26:21.884Z,86.79
2023-01-10T05:28:49.337Z,87.22
2023-01-10T05:31:19.948Z,87.17
2023-01-10T05:33:48.751Z,87.43
2023-01-10T05:36:17.761Z,86.85
2023-01-10T05:38:44.950Z,86.22
2023-01-10T05:41:12.203Z,86.04
2023-01-10T05:43:39.162Z,86.29
2023-01-10T05:46:06.164Z,86.57
2023-01-10T05:48:33.285Z,86.36
2023-01-10T05:51:00.597Z,86.62
2023-01-10T05:53:27.786Z,86.20
2023-01-10T05:56:02.335Z,85.56
2023-01-10T05:58:30.115Z,84.86
2023-01-10T06:00:58.169Z,85.72
2023-01-10T06:03:26.774Z,85.78
2023-01-10T06:05:57.390Z,86.08
2023-01-10T06:08:24.833Z,85.50
2023-01-10T06:10:52.323Z,84.97
2023-01-10T06:13:19.221Z,84.20
2023-01-10T06:15:46.169Z,83.80
2023-01-10T06:18:13.322Z,85.16
2023-01-10T06:20:41.249Z,85.12
2023-01-10T06:23:08.176Z,84.86
2023-01-10T06:25:37.771Z,84.53
2023-01-10T06:28:04.755Z,84.04
2023-01-10T06:30:31.644Z,83.74
2023-01-10T06:33:02.796Z,83.88
2023-01-10T06:35:30.597Z,84.59
2023-01-10T06:37:58.026Z,84.57
2023-01-10T06:40:26.273Z,84.14
2023-01-10T06:42:53.472Z,84.42
2023-01-10T06:45:20.361Z,83.69
2023-01-10T06:47:47.291Z,83.17
2023-01-10T06:50:14.790Z,83.44
2023-01-10T06:52:42.143Z,84.34
2023-01-10T06:55:09.282Z,84.45
2023-01-10T06:57:38.309Z,84.63
2023-01-10T07:00:07.952Z,83.68
2023-01-10T07:02:34.923Z,82.94
2023-01-10T07:05:01.841Z,83.10
2023-01-10T07:07:28.924Z,82.76
2023-01-10T07:09:55.973Z,83.56
2023-01-10T07:12:22.898Z,82.69
2023-01-10T07:14:49.833Z,82.04
2023-01-10T07:17:16.756Z,82.30
2023-01-10T07:19:43.734Z,81.01
2023-01-10T07:22:12.177Z,81.73
2023-01-10T07:24:39.156Z,81.97
2023-01-10T07:27:06.130Z,82.19
2023-01-10T07:29:33.002Z,82.07
2023-01-10T07:32:00.233Z,81.73
2023-01-10T07:34:27.238Z,81.69
2023-01-10T07:36:54.166Z,80.61
2023-01-10T07:39:21.032Z,80.53
2023-01-10T07:41:48.966Z,81.04
2023-01-10T07:44:16.431Z,81.63
2023-01-10T07:46:43.427Z,81.41
2023-01-10T07:49:10.521Z,80.95
2023-01-10T07:51:37.429Z,80.48
2023-01-10T07:54:04.456Z,79.98
2023-01-10T07:56:31.439Z,80.10
2023-01-10T07:58:58.801Z,80.54
2023-01-10T08:01:26.280Z,80.50
2023-01-10T08:03:54.464Z,80.87
2023-01-10T08:06:21.360Z,80.26
2023-01-10T08:08:48.233Z,79.47
2023-01-10T08:11:15.350Z,79.36
2023-01-10T08:13:42.388Z,78.84
2023-01-10T08:16:09.475Z,79.50
2023-01-10T08:18:36.685Z,78.11
2023-01-10T08:21:03.671Z,78.28
2023-01-10T08:23:32.446Z,77.20
2023-01-10T08:25:59.902Z,76.96
2023-01-10T08:28:26.829Z,75.94
2023-01-10T08:30:55.856Z,76.50
2023-01-10T08:33:24.085Z,76.31
2023-01-10T08:35:52.106Z,76.44
2023-01-10T08:38:19.053Z,75.88
2023-01-10T08:40:46.084Z,75.29
2023-01-10T08:43:13.613Z,75.35
2023-01-10T08:45:40.943Z,75.44
2023-01-10T08:48:09.587Z,74.84
2023-01-10T08:50:36.520Z,73.92
2023-01-10T08:53:03.766Z,73.71
2023-01-10T08:55:31.437Z,72.73
2023-01-10T08:58:02.482Z,72.99
2023-01-10T09:00:30.432Z,73.72
2023-01-10T09:02:58.071Z,73.61
2023-01-10T09:05:27.692Z,73.28
2023-01-10T09:08:00.336Z,72.96
2023-01-10T09:10:28.821Z,72.73
2023-01-10T09:12:57.417Z,73.23
2023-01-10T09:15:26.945Z,72.52
2023-01-10T09:17:58.992Z,72.44
2023-01-10T09:20:26.796Z,71.51
2023-01-10T09:22:54.210Z,70.85
2023-01-10T09:25:21.448Z,70.27
2023-01-10T09:27:55.676Z,71.11
2023-01-10T09:30:22.603Z,70.98
2023-01-10T09:32:54.325Z,70.42
2023-01-10T09:35:21.937Z,70.68
2023-01-10T09:37:49.280Z,70.06
2023-01-10T09:40:38.092Z,68.66
2023-01-10T09:43:36.000Z,68.66
2023-01-10T10:17:53.185Z,73.03
2023-01-10T10:20:28.420Z,71.64
2023-01-10T10:23:13.453Z,70.30
2023-01-10T10:25:55.630Z,69.41
2023-01-10T10:28:54.003Z,69.09
2023-01-10T10:31:42.536Z,68.38
2023-01-10T10:34:27.638Z,67.69
2023-01-10T10:37:04.332Z,68.12
2023-01-10T10:39:44.760Z,67.43
2023-01-10T10:42:15.816Z,67.74
2023-01-10T10:44:50.117Z,68.50
2023-01-10T10:47:20.435Z,68.98
2023-01-10T10:49:54.805Z,68.40
2023-01-10T10:52:27.350Z,68.11
2023-01-10T10:54:55.331Z,68.65
2023-01-10T10:57:27.764Z,68.42
2023-01-10T10:59:56.495Z,68.57
2023-01-10T11:02:27.579Z,68.90
2023-01-10T11:05:00.138Z,68.66
2023-01-10T11:07:32.870Z,69.10
2023-01-10T11:10:02.806Z,69.51
2023-01-10T11:12:36.044Z,69.78
2023-01-10T11:15:03.866Z,69.87
2023-01-10T11:17:34.032Z,69.54
2023-01-10T11:20:21.251Z,69.55
2023-01-10T11:22:54.276Z,69.05
2023-01-10T11:25:23.075Z,72.51
2023-01-10T11:27:55.750Z,71.48
2023-01-10T11:30:32.472Z,71.72
2023-01-10T11:33:05.965Z,71.59
2023-01-10T11:35:37.169Z,71.57
2023-01-10T11:38:17.539Z,71.71
2023-01-10T11:41:01.391Z,72.37
2023-01-10T11:43:34.800Z,71.76
2023-01-10T11:46:15.648Z,71.66
2023-01-10T11:49:04.293Z,71.93
2023-01-10T11:51:47.517Z,70.26
2023-01-10T11:54:26.666Z,71.31
2023-01-10T11:57:04.180Z,71.37
2023-01-10T11:59:32.942Z,71.30
2023-01-10T12:02:05.227Z,69.99
2023-01-10T12:04:39.870Z,69.84
2023-01-10T12:07:11.067Z,69.89
2023-01-10T12:09:42.849Z,70.10
2023-01-10T12:12:21.844Z,69.32
2023-01-10T12:14:50.252Z,69.13
2023-01-10T12:17:23.863Z,68.44
2023-01-10T12:19:56.495Z,66.65
2023-01-10T12:22:47.537Z,69.71
2023-01-10T12:25:21.336Z,67.37
2023-01-10T12:27:50.579Z,66.95
2023-01-10T12:30:36.608Z,67.12
2023-01-10T12:33:07.179Z,67.42
2023-01-10T12:35:41.306Z,67.28
2023-01-10T12:38:43.438Z,67.18
2023-01-10T12:41:35.026Z,67.65
2023-01-10T12:44:15.097Z,67.83
2023-01-10T12:47:05.917Z,68.44
2023-01-10T12:49:51.241Z,67.68
2023-01-10T12:52:31.258Z,67.96
2023-01-10T12:54:58.908Z,67.93
2023-01-10T12:57:38.025Z,67.59
2023-01-10T13:00:15.901Z,68.05
2023-01-10T13:02:46.415Z,68.59
2023-01-10T13:05:22.317Z,68.69
2023-01-10T13:07:52.508Z,68.62
2023-01-10T13:10:23.309Z,69.51
2023-01-10T13:13:16.916Z,69.27
2023-01-10T13:16:12.138Z,69.64
2023-01-10T13:19:02.036Z,70.60
2023-01-10T13:21:31.291Z,70.30
2023-01-10T13:24:05.092Z,70.03
2023-01-10T13:26:52.816Z,69.58
2023-01-10T13:29:29.324Z,69.47
2023-01-10T13:31:57.781Z,69.49
2023-01-10T13:34:35.852Z,69.79
2023-01-10T13:37:04.813Z,70.08
2023-01-10T13:39:31.667Z,71.09
2023-01-10T13:42:17.056Z,70.91
2023-01-10T13:45:02.237Z,71.09
2023-01-10T13:47:41.183Z,71.00
2023-01-10T13:50:22.813Z,71.69
2023-01-10T13:52:54.307Z,72.50
2023-01-10T13:55:28.891Z,72.55
2023-01-10T13:58:01.732Z,72.92
2023-01-10T14:00:53.185Z,73.92
2023-01-10T14:03:42.656Z,73.58
2023-01-10T14:06:27.736Z,74.70
2023-01-10T14:09:06.839Z,76.10
2023-01-10T14:11:59.482Z,76.53
2023-01-10T14:14:31.467Z,76.71
2023-01-10T14:17:12.928Z,77.53
2023-01-10T14:19:42.030Z,77.64
2023-01-10T14:22:27.564Z,78.25
2023-01-10T14:24:54.862Z,79.03
2023-01-10T14:27:22.982Z,78.99
2023-01-10T14:29:52.897Z,79.63
2023-01-10T14:32:41.408Z,78.77
2023-01-10T14:35:16.846Z,79.35
2023-01-10T14:37:54.552Z,79.07
2023-01-10T14:40:33.273Z,80.60
2023-01-10T14:43:04.407Z,80.13
2023-01-10T14:45:39.929Z,79.32
2023-01-10T14:48:36.088Z,79.66
2023-01-10T14:51:22.904Z,79.57
2023-01-10T14:54:01.654Z,80.33
2023-01-10T14:56:30.371Z,81.18
2023-01-10T14:58:57.369Z,80.97
2023-01-10T15:01:30.198Z,81.39
2023-01-10T15:03:57.631Z,82.19
2023-01-10T15:06:26.009Z,80.83
2023-01-10T15:09:00.840Z,82.55
2023-01-10T15:11:32.835Z,83.24
2023-01-10T15:14:05.264Z,83.85
2023-01-10T15:16:33.022Z,84.15
2023-01-10T15:19:00.428Z,83.90
2023-01-10T15:21:27.593Z,83.94
2023-01-10T15:23:55.337Z,83.67
2023-01-10T15:26:33.603Z,84.72
2023-01-10T15:29:12.902Z,83.94
2023-01-10T15:31:41.579Z,84.44
2023-01-10T15:34:18.859Z,84.88
2023-01-10T15:36:50.169Z,84.53
2023-01-10T15:39:27.283Z,83.97
2023-01-10T15:42:01.334Z,84.03
2023-01-10T15:44:40.979Z,85.73
2023-01-10T15:47:33.751Z,85.82
2023-01-10T15:50:00.847Z,85.46
2023-01-10T15:52:28.309Z,85.35
2023-01-10T15:54:57.114Z,85.17
2023-01-10T15:57:32.817Z,86.37
2023-01-10T16:00:00.360Z,86.70
2023-01-10T16:02:32.877Z,87.21
2023-01-10T16:05:09.516Z,86.24
2023-01-10T16:07:42.439Z,85.71
2023-01-10T16:10:35.797Z,84.75
2023-01-10T16:13:31.776Z,83.14
2023-01-10T16:16:01.212Z,83.43
2023-01-10T16:18:28.254Z,83.84
2023-01-10T16:20:57.755Z,83.04
2023-01-10T16:23:34.580Z,83.64
2023-01-10T16:26:05.221Z,83.32
2023-01-10T16:28:36.378Z,82.59
2023-01-10T16:31:06.575Z,81.58
2023-01-10T16:33:37.079Z,81.81
2023-01-10T16:36:04.743Z,81.88
2023-01-10T16:38:32.224Z,81.66
2023-01-10T16:41:21.971Z,82.20
2023-01-10T16:43:49.668Z,82.46
2023-01-10T16:46:16.715Z,83.82
2023-01-10T16:48:47.574Z,83.23
2023-01-10T16:51:18.994Z,83.78
2023-01-10T16:53:46.952Z,82.68
2023-01-10T16:56:16.583Z,81.84
2023-01-10T16:58:43.766Z,82.49
2023-01-10T17:01:17.494Z,81.95
2023-01-10T17:03:45.578Z,82.04
2023-01-10T17:06:13.878Z,81.31
2023-01-10T17:08:41.518Z,81.19
2023-01-10T17:11:17.780Z,81.12
2023-01-10T17:13:45.766Z,80.29
2023-01-10T17:16:13.146Z,78.84
2023-01-10T17:18:40.285Z,79.54
2023-01-10T17:21:11.168Z,79.18
2023-01-10T17:23:38.150Z,78.54
2023-01-10T17:26:05.955Z,77.43
2023-01-10T17:28:32.985Z,76.34
2023-01-10T17:31:00.172Z,76.80
2023-01-10T17:33:27.434Z,76.49
2023-01-10T17:35:56.214Z,76.30
2023-01-10T17:38:25.706Z,76.20
2023-01-10T17:40:53.515Z,76.04
2023-01-10T17:43:21.480Z,75.76
2023-01-10T17:45:51.205Z,75.33
2023-01-10T17:48:19.768Z,75.20
2023-01-10T17:50:48.335Z,72.80
2023-01-10T17:53:17.697Z,72.66
2023-01-10T17:55:48.725Z,71.53
2023-01-10T17:58:17.528Z,70.63
2023-01-10T18:00:46.138Z,69.81
2023-01-10T18:03:13.189Z,67.53
2023-01-10T18:05:40.241Z,67.38
2023-01-10T18:08:08.128Z,67.91
2023-01-10T18:10:35.224Z,67.93
2023-01-10T18:13:03.594Z,68.42
2023-01-10T18:15:30.942Z,69.46
2023-01-10T18:17:58.100Z,70.43
2023-01-10T18:20:25.113Z,71.33
2023-01-10T18:23:11.077Z,70.95
2023-01-10T18:25:38.081Z,71.89
2023-01-10T18:28:05.200Z,71.84
2023-01-10T18:30:32.315Z,72.93
2023-01-10T18:32:59.429Z,72.88
2023-01-10T18:35:27.087Z,71.82
2023-01-10T18:37:55.489Z,72.99
2023-01-10T18:40:22.441Z,73.37
2023-01-10T18:42:53.639Z,73.93
2023-01-10T18:45:22.496Z,74.89
2023-01-10T18:47:55.577Z,75.47
2023-01-10T18:50:22.987Z,77.15
2023-01-10T18:52:50.535Z,76.97
2023-01-10T18:55:17.677Z,77.27
2023-01-10T18:57:44.629Z,77.56
2023-01-10T19:00:12.180Z,78.03
2023-01-10T19:02:39.690Z,79.27
2023-01-10T19:05:09.850Z,80.27
2023-01-10T19:07:37.169Z,80.77
2023-01-10T19:10:05.276Z,81.07
2023-01-10T19:12:32.468Z,82.08
2023-01-10T19:15:00.980Z,81.96
2023-01-10T19:17:29.465Z,82.75
2023-01-10T19:19:56.403Z,82.78
2023-01-10T19:22:23.709Z,82.43
2023-01-10T19:24:50.829Z,83.56
2023-01-10T19:27:18.648Z,82.87
2023-01-10T19:29:48.705Z,81.84
2023-01-10T19:32:16.432Z,81.19
2023-01-10T19:34:45.489Z,79.74
2023-01-10T19:37:13.639Z,78.04
2023-01-10T19:39:40.713Z,76.16
2023-01-10T19:42:07.994Z,73.41
2023-01-10T19:44:35.011Z,71.58
2023-01-10T19:47:02.068Z,69.80
2023-01-10T19:49:34.756Z,66.90
2023-01-10T19:52:02.424Z,66.60
2023-01-10T19:54:31.425Z,65.22
2023-01-10T19:56:58.562Z,65.53
2023-01-10T19:59:26.070Z,67.81
2023-01-10T20:01:53.034Z,67.39
2023-01-10T20:04:20.408Z,67.83
2023-01-10T20:06:47.775Z,67.23
2023-01-10T20:09:15.336Z,67.27
2023-01-10T20:11:43.163Z,68.02
2023-01-10T20:14:28.132Z,69.42
2023-01-10T20:16:55.137Z,70.15
2023-01-10T20:19:22.544Z,71.17
2023-01-10T20:21:50.057Z,70.65
2023-01-10T20:24:19.585Z,71.36
2023-01-10T20:26:48.677Z,73.00
2023-01-10T20:29:16.659Z,73.24
2023-01-10T20:31:46.568Z,74.29
2023-01-10T20:34:13.533Z,75.01
2023-01-10T20:36:40.577Z,75.93
2023-01-10T20:39:07.718Z,75.48
2023-01-10T20:41:35.014Z,77.56
2023-01-10T20:44:02.035Z,78.01
2023-01-10T20:46:32.092Z,79.44
2023-01-10T20:49:02.243Z,79.45
2023-01-10T20:51:32.313Z,80.40
2023-01-10T20:53:59.943Z,80.57
2023-01-10T20:56:29.472Z,81.39
2023-01-10T20:58:56.901Z,82.15
2023-01-10T21:01:34.167Z,81.85
2023-01-10T21:04:03.868Z,82.29
2023-01-10T21:06:30.806Z,82.03
2023-01-10T21:08:57.830Z,82.67
2023-01-10T21:11:24.813Z,82.47
2023-01-10T21:13:51.925Z,81.93
2023-01-10T21:16:22.363Z,81.91
2023-01-10T21:18:50.767Z,81.84
2023-01-10T21:21:19.883Z,81.04
2023-01-10T21:23:46.840Z,80.32
2023-01-10T21:26:15.316Z,79.89
2023-01-10T21:28:47.411Z,80.08
2023-01-10T21:31:16.687Z,80.65
2023-01-10T21:33:44.156Z,79.86
2023-01-10T21:36:12.859Z,79.89
2023-01-10T21:38:40.690Z,79.79
2023-01-10T21:41:36.648Z,79.28
2023-01-10T21:44:05.654Z,79.87
2023-01-10T21:46:32.815Z,80.08
2023-01-10T21:49:01.731Z,79.72
2023-01-10T21:51:28.639Z,79.64
2023-01-10T21:53:55.711Z,78.73
2023-01-10T21:56:22.656Z,78.65
2023-01-10T21:58:49.650Z,78.83
2023-01-10T22:01:16.738Z,79.38
2023-01-10T22:03:45.518Z,79.31
2023-01-10T22:06:13.241Z,79.39
2023-01-10T22:08:40.168Z,79.79
2023-01-10T22:11:08.130Z,80.64
2023-01-10T22:13:36.844Z,81.17
2023-01-10T22:16:04.152Z,82.21
2023-01-10T22:18:31.548Z,81.86
2023-01-10T22:20:59.528Z,82.34
2023-01-10T22:23:29.188Z,81.95
2023-01-10T22:26:01.402Z,81.96
2023-01-10T22:28:28.631Z,82.59
2023-01-10T22:30:56.160Z,83.12
2023-01-10T22:33:24.401Z,82.81
2023-01-10T22:35:51.343Z,83.84
2023-01-10T22:38:18.434Z,83.53
2023-01-10T22:40:45.375Z,84.17
2023-01-10T22:43:12.679Z,83.89
2023-01-10T22:45:43.375Z,84.44
2023-01-10T22:48:10.450Z,84.52
2023-01-10T22:50:37.506Z,84.79
2023-01-10T22:53:04.416Z,84.18
2023-01-10T22:55:33.882Z,84.64
2023-01-10T22:58:00.737Z,85.38
2023-01-10T23:00:29.104Z,85.18
2023-01-10T23:02:56.172Z,86.26
2023-01-10T23:05:23.080Z,85.43
2023-01-10T23:07:53.657Z,85.82
2023-01-10T23:10:29.626Z,85.32
2023-01-10T23:12:58.026Z,86.20
2023-01-10T23:15:25.488Z,86.14
2023-01-10T23:17:52.467Z,85.89
2023-01-10T23:20:19.659Z,85.79
2023-01-10T23:22:46.682Z,85.79
2023-01-10T23:25:13.583Z,85.26
2023-01-10T23:27:40.481Z,85.85
2023-01-10T23:30:09.473Z,85.95
2023-01-10T23:32:36.821Z,85.80
2023-01-10T23:35:04.507Z,85.24
2023-01-10T23:37:31.384Z,85.33
2023-01-10T23:39:58.289Z,85.22
2023-01-10T23:42:25.183Z,86.06
2023-01-10T23:44:52.153Z,85.37
2023-01-10T23:47:19.185Z,85.78
2023-01-10T23:49:46.060Z,85.46
2023-01-10T23:52:14.978Z,86.20
2023-01-10T23:54:41.984Z,86.85
2023-01-10T23:57:08.917Z,86.71
2023-01-10T23:59:35.822Z,86.54
